Time;durP1;ratioP1;P1;durP2;ratioP2;P2;SDS_P1;SDS_P2;PMS_P1;PMS_P2;Temp;Humidity;BMP_temperature;BMP_pressure;BME280_temperature;BME280_humidity;BME280_pressure;Samples;Min_cycle;Max_cycle;Signal;HPM_P1;HPM_P2
2021/07/26 00:00:44;;;;;;;;;;;;;;;26.09;45.67;100907.38;1771899;78;21294;-56
2021/07/26 00:03:12;;;;;;;;;;;;;;;26.08;45.71;100902.38;1772279;78;20256;-56
2021/07/26 00:05:38;;;;;;;;;;;;;;;26.08;45.71;100901.56;1774442;78;20476;-56
2021/07/26 00:08:05;;;;;;;;;;;;;;;26.08;45.72;100902.38;1774574;78;20763;-55
2021/07/26 00:10:30;;;;;;;;;;;;;;;26.09;45.75;100904.02;1774356;78;20551;-56
2021/07/26 00:12:56;;;;;;;;;;;;;;;26.10;45.77;100904.80;1769267;78;21140;-56
2021/07/26 00:15:22;;;;;;;;;;;;;;;26.10;45.77;100904.80;1771262;78;20211;-56
2021/07/26 00:17:48;;;;;;;;;;;;;;;26.10;45.79;100900.62;1766410;78;20262;-56
2021/07/26 00:20:15;;;;;;;;;;;;;;;26.10;45.81;100894.46;1773634;79;20214;-56
2021/07/26 00:22:43;;;;;;;;;;;;;;;26.11;45.85;100894.70;1766883;79;20669;-56
2021/07/26 00:25:09;;;;;;;;;;;;;;;26.11;45.86;100891.91;1765913;78;21180;-56
2021/07/26 00:27:36;;;;;;;;;;;;;;;26.11;45.89;100891.91;1770534;78;20246;-55
2021/07/26 00:30:02;;;;;;;;;;;;;;;26.11;45.92;100887.73;1771523;78;20163;-56
2021/07/26 00:32:29;;;;;;;;;;;;;;;26.12;45.96;100873.20;1768349;79;20172;-56
2021/07/26 00:34:56;;;;;;;;;;;;;;;26.12;45.97;100868.45;1771006;78;20225;-56
2021/07/26 00:37:26;;;;;;;;;;;;;;;26.12;45.98;100871.23;1767642;78;20958;-56
2021/07/26 00:39:53;;;;;;;;;;;;;;;26.13;46.01;100877.63;1773856;78;20195;-56
2021/07/26 00:42:20;;;;;;;;;;;;;;;26.13;46.05;100874.26;1768162;78;20212;-56
2021/07/26 00:44:46;;;;;;;;;;;;;;;26.13;46.05;100875.66;1778870;79;20202;-56
2021/07/26 00:47:12;;;;;;;;;;;;;;;26.13;46.09;100874.26;1772453;78;20476;-56
2021/07/26 00:49:38;;;;;;;;;;;;;;;26.13;46.12;100877.63;1778810;78;21724;-56
2021/07/26 00:52:04;;;;;;;;;;;;;;;26.14;46.16;100878.64;1775868;78;20190;-56
2021/07/26 00:54:31;;;;;;;;;;;;;;;26.13;46.18;100875.66;1753065;80;20188;-57
2021/07/26 00:56:59;;;;;;;;;;;;;;;26.15;46.20;100880.28;1777450;79;20303;-57
2021/07/26 00:59:26;;;;;;;;;;;;;;;26.14;46.23;100877.86;1778579;79;20538;-55
2021/07/26 01:01:51;;;;;;;;;;;;;;;26.14;46.26;100880.04;1778334;79;21177;-56
2021/07/26 01:04:17;;;;;;;;;;;;;;;26.14;46.29;100882.05;1777581;79;20289;-56
2021/07/26 01:06:43;;;;;;;;;;;;;;;26.14;46.30;100880.65;1780807;79;20803;-56
2021/07/26 01:09:09;;;;;;;;;;;;;;;26.14;46.31;100877.86;1775075;79;20710;-56
2021/07/26 01:11:35;;;;;;;;;;;;;;;26.14;46.36;100880.04;1776186;79;20278;-56
2021/07/26 01:14:01;;;;;;;;;;;;;;;26.15;46.37;100881.67;1779507;79;20955;-56
2021/07/26 01:16:27;;;;;;;;;;;;;;;26.16;46.41;100883.88;1777708;80;20279;-56
2021/07/26 01:18:53;;;;;;;;;;;;;;;26.15;46.43;100886.44;1780659;79;20210;-56
2021/07/26 01:21:19;;;;;;;;;;;;;;;26.15;46.45;100887.83;1778956;79;20171;-57
2021/07/26 01:23:47;;;;;;;;;;;;;;;26.16;46.47;100889.45;1780153;80;20202;-56
2021/07/26 01:26:15;;;;;;;;;;;;;;;26.16;46.52;100893.64;1778222;79;23204;-56
2021/07/26 01:28:46;;;;;;;;;;;;;;;26.15;46.53;100887.25;1780416;79;20466;-56
2021/07/26 01:31:12;;;;;;;;;;;;;;;26.15;46.56;100895.61;1775503;79;20200;-57
2021/07/26 01:33:39;;;;;;;;;;;;;;;26.16;46.57;100886.09;1779789;79;21995;-56
2021/07/26 01:36:05;;;;;;;;;;;;;;;26.15;46.59;100883.06;1775063;79;20236;-57
2021/07/26 01:38:30;;;;;;;;;;;;;;;26.15;46.61;100888.64;1779240;79;21386;-55
2021/07/26 01:41:11;;;;;;;;;;;;;;;26.16;46.62;100885.27;1778997;79;21032;-55
2021/07/26 01:43:39;;;;;;;;;;;;;;;26.16;46.66;100883.30;1775863;79;20232;-55
2021/07/26 01:46:27;;;;;;;;;;;;;;;26.16;46.67;100882.48;1734066;81;22057;-55
2021/07/26 01:49:02;;;;;;;;;;;;;;;26.16;46.68;100886.67;1760346;79;20267;-55
2021/07/26 01:51:42;;;;;;;;;;;;;;;26.15;46.69;100887.25;1764102;79;23195;-55
2021/07/26 01:54:08;;;;;;;;;;;;;;;26.16;46.73;100890.85;1760713;79;20341;-55
2021/07/26 01:56:34;;;;;;;;;;;;;;;26.15;46.74;100896.19;1732627;79;20211;-55
2021/07/26 01:59:00;;;;;;;;;;;;;;;26.14;46.75;100891.20;1763224;79;20974;-55
2021/07/26 02:01:26;;;;;;;;;;;;;;;26.15;46.79;100894.80;1765420;80;20208;-55
2021/07/26 02:03:52;;;;;;;;;;;;;;;26.14;46.83;100891.20;1762254;79;23346;-55
2021/07/26 02:06:18;;;;;;;;;;;;;;;26.14;46.88;100885.62;1763224;79;20212;-55
2021/07/26 02:08:44;;;;;;;;;;;;;;;26.14;46.89;100887.02;1766402;79;20188;-55
2021/07/26 02:11:09;;;;;;;;;;;;;;;26.15;46.91;100880.86;1760978;79;20431;-55
2021/07/26 02:13:36;;;;;;;;;;;;;;;26.15;46.94;100883.06;1761186;79;20783;-55
2021/07/26 02:16:02;;;;;;;;;;;;;;;26.14;46.98;100875.86;1767787;79;20990;-55
2021/07/26 02:18:28;;;;;;;;;;;;;;;26.14;47.00;100874.46;1764908;79;20259;-55
2021/07/26 02:20:53;;;;;;;;;;;;;;;26.15;47.03;100865.52;1764446;79;20177;-55
2021/07/26 02:23:20;;;;;;;;;;;;;;;26.14;47.06;100870.89;1760591;79;20455;-55
2021/07/26 02:25:45;;;;;;;;;;;;;;;26.15;47.07;100876.09;1765244;79;20201;-55
2021/07/26 02:28:11;;;;;;;;;;;;;;;26.15;47.10;100873.88;1766383;79;21181;-55
2021/07/26 02:30:37;;;;;;;;;;;;;;;26.15;47.16;100871.91;1766538;79;20275;-55
2021/07/26 02:33:04;;;;;;;;;;;;;;;26.15;47.19;100874.70;1762697;79;20423;-56
2021/07/26 02:35:30;;;;;;;;;;;;;;;26.14;47.20;100877.25;1754998;79;20208;-56
2021/07/26 02:37:58;;;;;;;;;;;;;;;26.15;47.23;100885.85;1762285;79;20181;-55
2021/07/26 02:40:25;;;;;;;;;;;;;;;26.15;47.24;100885.04;1765131;80;21241;-55
2021/07/26 02:42:51;;;;;;;;;;;;;;;26.15;47.27;100891.43;1761325;79;20431;-55
2021/07/26 02:45:17;;;;;;;;;;;;;;;26.15;47.31;100891.43;1769428;79;20144;-55
2021/07/26 02:47:43;;;;;;;;;;;;;;;26.15;47.34;100890.03;1768276;78;20482;-55
2021/07/26 02:50:09;;;;;;;;;;;;;;;26.15;47.37;100892.83;1774604;78;20177;-54
2021/07/26 02:52:35;;;;;;;;;;;;;;;26.16;47.40;100900.61;1769972;78;21135;-55
2021/07/26 02:55:01;;;;;;;;;;;;;;;26.15;47.43;100897.01;1775566;78;21659;-55
2021/07/26 02:57:27;;;;;;;;;;;;;;;26.15;47.45;100899.80;1770209;78;20413;-55
2021/07/26 02:59:53;;;;;;;;;;;;;;;26.15;47.49;100903.16;1770429;78;20218;-54
2021/07/26 03:02:19;;;;;;;;;;;;;;;26.15;47.50;100907.34;1772255;78;20200;-55
2021/07/26 03:04:45;;;;;;;;;;;;;;;26.15;47.52;100905.38;1774084;78;21242;-55
2021/07/26 03:07:11;;;;;;;;;;;;;;;26.15;47.55;100902.59;1773410;78;20285;-56
2021/07/26 03:09:37;;;;;;;;;;;;;;;26.15;47.58;100912.92;1772391;78;20182;-55
2021/07/26 03:12:04;;;;;;;;;;;;;;;26.15;47.60;100918.50;1774116;78;20155;-55
2021/07/26 03:14:30;;;;;;;;;;;;;;;26.14;47.63;100926.05;1770592;78;20126;-55
2021/07/26 03:16:56;;;;;;;;;;;;;;;26.15;47.64;100931.05;1772321;78;21118;-56
2021/07/26 03:19:21;;;;;;;;;;;;;;;26.14;47.66;100931.63;1770133;78;20211;-55
2021/07/26 03:22:24;;;;;;;;;;;;;;;26.15;47.70;100925.47;1775613;78;20166;-55
2021/07/26 03:24:50;;;;;;;;;;;;;;;26.14;47.70;100928.84;1709691;81;20480;-55
2021/07/26 03:27:16;;;;;;;;;;;;;;;26.14;47.73;100932.23;1756708;78;20191;-55
2021/07/26 03:29:41;;;;;;;;;;;;;;;26.15;47.76;100931.05;1771704;78;21061;-54
2021/07/26 03:32:08;;;;;;;;;;;;;;;26.15;47.77;100931.05;1765784;79;20156;-55
2021/07/26 03:34:34;;;;;;;;;;;;;;;26.14;47.78;100931.63;1769762;79;20421;-55
2021/07/26 03:37:00;;;;;;;;;;;;;;;26.13;47.84;100932.81;1770040;78;20638;-55
2021/07/26 03:39:26;;;;;;;;;;;;;;;26.13;47.86;100941.19;1764763;78;20204;-55
2021/07/26 03:41:55;;;;;;;;;;;;;;;26.14;47.88;100943.39;1769621;79;21048;-55
2021/07/26 03:44:21;;;;;;;;;;;;;;;26.14;47.89;100944.78;1761991;79;20290;-55
2021/07/26 03:46:47;;;;;;;;;;;;;;;26.13;47.92;100943.97;1762822;79;20360;-55
2021/07/26 03:49:13;;;;;;;;;;;;;;;26.14;47.96;100951.76;1771916;79;20662;-55
2021/07/26 03:51:39;;;;;;;;;;;;;;;26.14;47.97;100951.76;1771278;79;20213;-58
2021/07/26 03:54:04;;;;;;;;;;;;;;;26.14;48.00;100951.76;1768579;80;21286;-56
2021/07/26 03:56:30;;;;;;;;;;;;;;;26.14;48.03;100948.97;1774903;80;20252;-55
2021/07/26 03:58:56;;;;;;;;;;;;;;;26.13;48.09;100953.73;1771960;80;20222;-57
2021/07/26 04:01:22;;;;;;;;;;;;;;;26.14;48.15;100953.16;1774101;80;20686;-57
2021/07/26 04:03:49;;;;;;;;;;;;;;;26.15;48.17;100958.94;1770481;80;20647;-57
2021/07/26 04:06:16;;;;;;;;;;;;;;;26.15;48.22;100959.75;1769832;80;21078;-57
2021/07/26 04:08:46;;;;;;;;;;;;;;;26.15;48.23;100959.75;1770636;80;20232;-56
2021/07/26 04:11:19;;;;;;;;;;;;;;;26.16;48.29;100959.98;1762160;80;20412;-56
2021/07/26 04:13:39;;;;;;;;;;;;;;;26.16;48.30;100964.17;1764278;80;20180;-56
2021/07/26 04:16:05;;;;;;;;;;;;;;;26.16;48.33;100959.98;1771332;79;20216;-56
2021/07/26 04:18:31;;;;;;;;;;;;;;;26.17;48.35;100960.23;1773559;79;20848;-56
2021/07/26 04:20:57;;;;;;;;;;;;;;;26.16;48.35;100959.98;1771139;80;20387;-56
2021/07/26 04:23:23;;;;;;;;;;;;;;;26.16;48.41;100955.81;1769675;80;20222;-56
2021/07/26 04:25:50;;;;;;;;;;;;;;;26.17;48.41;100958.83;1774876;80;20247;-56
2021/07/26 04:28:16;;;;;;;;;;;;;;;26.18;48.44;100959.04;1770464;80;20166;-57
2021/07/26 04:30:42;;;;;;;;;;;;;;;26.18;48.47;100961.83;1767620;80;21182;-54
2021/07/26 04:33:09;;;;;;;;;;;;;;;26.18;48.48;100966.02;1769227;80;20187;-55
2021/07/26 04:35:35;;;;;;;;;;;;;;;26.19;48.52;100971.02;1766470;80;20213;-58
2021/07/26 04:38:01;;;;;;;;;;;;;;;26.19;48.54;100973.80;1766925;80;20173;-58
2021/07/26 04:40:27;;;;;;;;;;;;;;;26.21;48.54;100972.91;1767795;80;20187;-57
2021/07/26 04:42:53;;;;;;;;;;;;;;;26.21;48.59;100979.88;1767296;80;21117;-55
2021/07/26 04:45:19;;;;;;;;;;;;;;;26.20;48.59;100979.65;1776355;78;20436;-58
2021/07/26 04:47:45;;;;;;;;;;;;;;;26.22;48.59;100985.70;1793059;78;20217;-57
2021/07/26 04:50:11;;;;;;;;;;;;;;;26.22;48.64;100985.13;1791341;78;20243;-56
2021/07/26 04:52:37;;;;;;;;;;;;;;;26.23;48.69;100980.33;1796248;78;20144;-56
2021/07/26 04:55:04;;;;;;;;;;;;;;;26.22;48.71;100983.73;1789036;78;21075;-56
2021/07/26 04:57:30;;;;;;;;;;;;;;;26.23;48.75;100983.94;1792344;78;20179;-56
2021/07/26 04:59:55;;;;;;;;;;;;;;;26.23;48.77;100991.48;1793251;78;20320;-56
2021/07/26 05:02:21;;;;;;;;;;;;;;;26.23;48.81;100993.70;1788383;78;20750;-56
2021/07/26 05:04:47;;;;;;;;;;;;;;;26.23;48.82;100997.06;1801457;78;20234;-53
2021/07/26 05:07:13;;;;;;;;;;;;;;;26.24;48.83;100997.30;1794125;78;21223;-60
2021/07/26 05:09:40;;;;;;;;;;;;;;;26.24;48.86;100999.52;1798614;78;20775;-60
2021/07/26 05:12:12;;;;;;;;;;;;;;;26.25;48.90;100997.54;1789289;78;20144;-61
2021/07/26 05:14:42;;;;;;;;;;;;;;;26.25;48.93;101005.91;1791892;78;20426;-60
2021/07/26 05:17:08;;;;;;;;;;;;;;;26.25;48.94;101005.33;1789517;78;20278;-61
2021/07/26 05:19:34;;;;;;;;;;;;;;;26.24;48.97;100997.30;1791242;78;21073;-60
2021/07/26 05:22:00;;;;;;;;;;;;;;;26.25;48.98;101002.54;1793924;78;20269;-60
2021/07/26 05:24:26;;;;;;;;;;;;;;;26.26;48.98;101008.36;1791978;78;20305;-60
2021/07/26 05:27:02;;;;;;;;;;;;;;;26.26;49.00;101000.56;1791426;78;20186;-60
2021/07/26 05:29:28;;;;;;;;;;;;;;;26.25;49.02;101002.54;1792501;78;20095;-60
2021/07/26 05:31:54;;;;;;;;;;;;;;;26.27;49.07;100999.37;1794840;78;21065;-60
2021/07/26 05:34:21;;;;;;;;;;;;;;;26.26;49.09;100996.38;1790233;78;20343;-60
2021/07/26 05:36:47;;;;;;;;;;;;;;;26.27;49.09;101002.17;1790533;78;20198;-59
2021/07/26 05:39:13;;;;;;;;;;;;;;;26.26;49.11;100999.98;1793923;78;20231;-59
2021/07/26 05:41:39;;;;;;;;;;;;;;;26.27;49.12;100997.41;1792683;78;20156;-59
2021/07/26 05:44:05;;;;;;;;;;;;;;;26.27;49.13;100996.59;1758422;80;20901;-59
2021/07/26 05:46:31;;;;;;;;;;;;;;;26.27;49.20;101005.77;1762617;79;20167;-59
2021/07/26 05:48:57;;;;;;;;;;;;;;;26.27;49.26;101004.38;1745039;80;20222;-59
2021/07/26 05:51:23;;;;;;;;;;;;;;;26.27;49.27;101012.75;1749761;80;20183;-58
2021/07/26 05:53:48;;;;;;;;;;;;;;;26.28;49.34;101016.35;1753928;80;20234;-59
2021/07/26 05:56:14;;;;;;;;;;;;;;;26.27;49.33;101013.33;1742467;80;22073;-59
2021/07/26 05:58:42;;;;;;;;;;;;;;;26.27;49.38;101013.33;1740222;80;20198;-55
2021/07/26 06:03:49;;;;;;;;;;;;;;;26.27;49.45;101012.75;1746932;80;20522;-59
2021/07/26 06:06:15;;;;;;;;;;;;;;;26.27;49.47;101019.72;1742617;80;20205;-59
2021/07/26 06:08:41;;;;;;;;;;;;;;;26.27;49.50;101021.11;1748396;80;21158;-59
2021/07/26 06:11:07;;;;;;;;;;;;;;;26.27;49.53;101023.09;1745501;80;20234;-58
2021/07/26 06:13:33;;;;;;;;;;;;;;;26.26;49.58;101029.27;1744440;81;20329;-59
2021/07/26 06:15:59;;;;;;;;;;;;;;;26.28;49.59;101020.53;1758106;80;20681;-60
2021/07/26 06:18:28;;;;;;;;;;;;;;;26.28;49.63;101023.33;1756778;80;20547;-60
2021/07/26 06:20:54;;;;;;;;;;;;;;;26.28;49.66;101021.93;1751426;80;21053;-59
2021/07/26 06:23:20;;;;;;;;;;;;;;;26.28;49.69;101027.51;1750575;81;20187;-60
2021/07/26 06:25:46;;;;;;;;;;;;;;;26.27;49.69;101025.30;1751347;80;20292;-60
2021/07/26 06:28:12;;;;;;;;;;;;;;;26.28;49.71;101020.53;1746289;80;20206;-60
2021/07/26 06:30:38;;;;;;;;;;;;;;;26.27;49.72;101023.91;1755594;80;20270;-60
2021/07/26 06:33:10;;;;;;;;;;;;;;;26.28;49.75;101017.75;1754998;81;21037;-60
2021/07/26 06:35:36;;;;;;;;;;;;;;;26.27;49.75;101023.91;1751950;80;20203;-60
2021/07/26 06:38:02;;;;;;;;;;;;;;;26.28;49.74;101018.56;1742319;80;20309;-60
2021/07/26 06:40:30;;;;;;;;;;;;;;;26.28;49.75;101022.75;1748843;80;20223;-61
2021/07/26 06:42:56;;;;;;;;;;;;;;;26.29;49.78;101024.95;1744529;80;20144;-62
2021/07/26 06:45:22;;;;;;;;;;;;;;;26.28;49.79;101017.75;1748773;79;22033;-60
2021/07/26 06:47:49;;;;;;;;;;;;;;;26.28;49.79;101021.35;1777897;79;21744;-59
2021/07/26 06:50:15;;;;;;;;;;;;;;;26.29;49.79;101024.38;1777656;79;20237;-59
2021/07/26 06:52:41;;;;;;;;;;;;;;;26.29;49.83;101021.59;1776492;79;20769;-60
2021/07/26 06:55:07;;;;;;;;;;;;;;;26.29;49.84;101012.41;1776204;79;20264;-61
2021/07/26 06:57:34;;;;;;;;;;;;;;;26.30;49.87;101021.02;1778102;79;21071;-60
2021/07/26 07:00:00;;;;;;;;;;;;;;;26.29;49.88;101018.80;1774948;79;20587;-60
2021/07/26 07:02:26;;;;;;;;;;;;;;;26.29;49.88;101024.38;1776971;79;20238;-59
2021/07/26 07:04:52;;;;;;;;;;;;;;;26.29;49.89;101027.17;1781190;79;20175;-60
2021/07/26 07:07:18;;;;;;;;;;;;;;;26.30;49.88;101028.80;1778636;79;20952;-59
2021/07/26 07:09:44;;;;;;;;;;;;;;;26.31;49.89;101024.01;1776072;79;20458;-59
2021/07/26 07:12:09;;;;;;;;;;;;;;;26.30;49.89;101023.22;1780802;79;20198;-59
2021/07/26 07:14:35;;;;;;;;;;;;;;;26.31;49.92;101026.80;1777929;79;20187;-59
2021/07/26 07:17:02;;;;;;;;;;;;;;;26.31;49.93;101022.61;1779967;79;20226;-58
2021/07/26 07:19:28;;;;;;;;;;;;;;;26.31;49.93;101024.83;1747222;79;20486;-59
2021/07/26 07:21:54;;;;;;;;;;;;;;;26.31;49.94;101026.22;1776405;79;21736;-58
2021/07/26 07:24:20;;;;;;;;;;;;;;;26.30;49.95;101030.20;1773557;79;20242;-59
2021/07/26 07:26:46;;;;;;;;;;;;;;;26.32;49.95;101036.22;1778804;79;20220;-59
2021/07/26 07:29:12;;;;;;;;;;;;;;;26.31;49.97;101033.19;1774081;79;20762;-59
2021/07/26 07:31:37;;;;;;;;;;;;;;;26.31;49.96;101040.17;1775085;79;20194;-59
2021/07/26 07:34:05;;;;;;;;;;;;;;;26.31;49.95;101038.77;1776443;79;21056;-59
2021/07/26 07:36:31;;;;;;;;;;;;;;;26.32;49.96;101041.80;1777170;79;20264;-59
2021/07/26 07:38:59;;;;;;;;;;;;;;;26.33;49.94;101044.83;1773743;79;20217;-59
2021/07/26 07:41:25;;;;;;;;;;;;;;;26.33;49.98;101041.22;1777803;79;20478;-59
2021/07/26 07:43:51;;;;;;;;;;;;;;;26.33;49.96;101049.59;1777877;79;20226;-59
2021/07/26 07:46:19;;;;;;;;;;;;;;;26.33;49.95;101054.59;1778630;79;21204;-59
2021/07/26 07:48:46;;;;;;;;;;;;;;;26.33;49.95;101048.20;1776553;80;20243;-59
2021/07/26 07:51:12;;;;;;;;;;;;;;;26.34;49.94;101046.46;1777376;79;20191;-59
2021/07/26 07:53:38;;;;;;;;;;;;;;;26.33;49.94;101040.64;1779365;79;20403;-59
2021/07/26 07:56:04;;;;;;;;;;;;;;;26.33;49.95;101050.41;1776574;79;20439;-58
2021/07/26 07:58:31;;;;;;;;;;;;;;;26.34;49.93;101045.64;1777750;79;20644;-59
2021/07/26 08:00:57;;;;;;;;;;;;;;;26.33;49.94;101044.83;1777534;79;20241;-59
2021/07/26 08:03:23;;;;;;;;;;;;;;;26.34;49.94;101045.64;1775316;79;20199;-59
2021/07/26 08:05:49;;;;;;;;;;;;;;;26.34;49.93;101044.25;1773448;79;20454;-60
2021/07/26 08:08:16;;;;;;;;;;;;;;;26.34;49.92;101042.28;1773678;79;20221;-60
2021/07/26 08:10:42;;;;;;;;;;;;;;;26.33;49.89;101040.64;1777365;79;21135;-59
2021/07/26 08:13:08;;;;;;;;;;;;;;;26.34;49.91;101040.06;1777448;79;20241;-59
2021/07/26 08:15:34;;;;;;;;;;;;;;;26.35;49.90;101048.67;1777210;79;20821;-59
2021/07/26 08:17:59;;;;;;;;;;;;;;;26.34;49.91;101038.09;1775119;79;20482;-59
2021/07/26 08:20:25;;;;;;;;;;;;;;;26.35;49.90;101043.87;1773735;79;20262;-59
2021/07/26 08:22:51;;;;;;;;;;;;;;;26.34;49.89;101042.28;1777682;79;21115;-59
2021/07/26 08:25:17;;;;;;;;;;;;;;;26.35;49.90;101043.87;1776483;79;20732;-60
2021/07/26 08:27:50;;;;;;;;;;;;;;;26.35;49.90;101038.91;1777752;79;20209;-60
2021/07/26 08:30:27;;;;;;;;;;;;;;;26.35;49.87;101038.91;1776471;79;20429;-59
2021/07/26 08:32:53;;;;;;;;;;;;;;;26.35;49.87;101040.30;1781524;79;20231;-59
2021/07/26 08:35:19;;;;;;;;;;;;;;;26.36;49.86;101041.91;1783315;79;21317;-59
2021/07/26 08:37:44;;;;;;;;;;;;;;;26.35;49.87;101031.33;1777708;79;20471;-59
2021/07/26 08:40:11;;;;;;;;;;;;;;;26.35;49.85;101035.51;1782035;79;20254;-60
2021/07/26 08:42:37;;;;;;;;;;;;;;;26.35;49.85;101025.75;1781215;79;20414;-59
2021/07/26 08:45:04;;;;;;;;;;;;;;;26.36;49.86;101038.54;1781109;79;20166;-59
2021/07/26 08:47:30;;;;;;;;;;;;;;;26.36;49.87;101033.53;1769918;79;21322;-59
2021/07/26 08:49:58;;;;;;;;;;;;;;;26.36;49.87;101030.75;1739357;79;20857;-59
2021/07/26 08:52:25;;;;;;;;;;;;;;;26.36;49.90;101030.75;1767240;79;20620;-59
2021/07/26 08:54:51;;;;;;;;;;;;;;;26.36;49.92;101029.35;1764814;79;20604;-59
2021/07/26 08:57:16;;;;;;;;;;;;;;;26.36;49.91;101028.77;1766192;79;20158;-59
2021/07/26 08:59:43;;;;;;;;;;;;;;;26.36;49.95;101034.36;1767494;79;21283;-59
2021/07/26 09:02:09;;;;;;;;;;;;;;;26.36;49.96;101024.59;1764284;79;20149;-59
2021/07/26 09:04:37;;;;;;;;;;;;;;;26.36;49.99;101025.17;1767617;79;20180;-59
2021/07/26 09:07:06;;;;;;;;;;;;;;;26.36;49.99;101027.37;1768201;79;20122;-60
2021/07/26 09:09:44;;;;;;;;;;;;;;;26.36;50.04;101023.77;1766535;79;20436;-60
2021/07/26 09:12:11;;;;;;;;;;;;;;;26.36;50.05;101025.98;1765860;79;22016;-60
2021/07/26 09:14:39;;;;;;;;;;;;;;;26.37;50.09;101029.59;1767296;81;20130;-61
2021/07/26 09:17:07;;;;;;;;;;;;;;;26.37;50.11;101024.01;1766821;79;20377;-59
2021/07/26 09:19:58;;;;;;;;;;;;;;;26.38;50.15;101024.83;1766676;79;20417;-60
2021/07/26 09:22:29;;;;;;;;;;;;;;;26.36;50.19;101019.02;1766963;79;20206;-60
2021/07/26 09:25:21;;;;;;;;;;;;;;;26.36;50.22;101024.59;1767272;79;21124;-60
2021/07/26 09:28:10;;;;;;;;;;;;;;;26.36;50.25;101019.02;1765811;79;20169;-60
2021/07/26 09:30:45;;;;;;;;;;;;;;;26.36;50.30;101017.62;1768907;79;20260;-60
2021/07/26 09:33:28;;;;;;;;;;;;;;;26.36;50.33;101024.59;1767276;79;20186;-60
2021/07/26 09:36:19;;;;;;;;;;;;;;;26.36;50.36;101020.98;1767666;79;20173;-60
2021/07/26 09:38:55;;;;;;;;;;;;;;;26.37;50.39;101021.22;1766024;79;21119;-60
2021/07/26 09:41:47;;;;;;;;;;;;;;;26.35;50.39;101022.95;1765201;79;20221;-60
2021/07/26 09:44:13;;;;;;;;;;;;;;;26.35;50.40;101022.95;1767938;80;20453;-60
2021/07/26 09:46:40;;;;;;;;;;;;;;;26.36;50.43;101026.56;1770818;79;20487;-60
2021/07/26 09:49:14;;;;;;;;;;;;;;;26.36;50.45;101015.41;1774459;79;20155;-62
2021/07/26 09:51:40;;;;;;;;;;;;;;;26.35;50.48;101021.56;1764939;79;21176;-60
2021/07/26 09:54:07;;;;;;;;;;;;;;;26.36;50.49;101030.17;1766335;79;20138;-60
2021/07/26 09:56:33;;;;;;;;;;;;;;;26.38;50.53;101026.22;1766774;79;20193;-60
2021/07/26 09:59:01;;;;;;;;;;;;;;;26.38;50.55;101023.44;1767186;80;20170;-60
2021/07/26 10:01:28;;;;;;;;;;;;;;;26.38;50.57;101015.06;1766366;79;20170;-60
2021/07/26 10:03:55;;;;;;;;;;;;;;;26.38;50.60;101008.09;1765420;79;21159;-60
2021/07/26 10:06:21;;;;;;;;;;;;;;;26.38;50.62;101003.33;1764970;79;20231;-59
2021/07/26 10:08:47;;;;;;;;;;;;;;;26.40;50.65;100994.58;1764180;79;20166;-60
2021/07/26 10:11:14;;;;;;;;;;;;;;;26.40;50.63;100991.80;1767134;79;20396;-60
2021/07/26 10:13:41;;;;;;;;;;;;;;;26.41;50.67;100990.64;1767649;79;20166;-60
2021/07/26 10:16:14;;;;;;;;;;;;;;;26.41;50.71;100989.24;1767491;79;21121;-59
2021/07/26 10:18:47;;;;;;;;;;;;;;;26.42;50.73;100993.66;1766996;79;20178;-60
2021/07/26 10:21:16;;;;;;;;;;;;;;;26.42;50.74;100988.09;1764435;79;20331;-58
2021/07/26 10:23:56;;;;;;;;;;;;;;;26.43;50.78;100987.74;1763163;79;20173;-59
2021/07/26 10:26:35;;;;;;;;;;;;;;;26.44;50.79;100990.73;1762214;80;20209;-59
2021/07/26 10:29:01;;;;;;;;;;;;;;;26.44;50.82;100983.77;1764770;79;21167;-59
2021/07/26 10:31:32;;;;;;;;;;;;;;;26.45;50.83;100985.39;1764880;80;20204;-59
2021/07/26 10:34:03;;;;;;;;;;;;;;;26.47;50.83;100986.45;1765379;79;20145;-59
2021/07/26 10:36:42;;;;;;;;;;;;;;;26.48;50.84;100982.50;1766147;79;20276;-59
2021/07/26 10:39:21;;;;;;;;;;;;;;;26.50;50.85;100980.16;1732726;81;20194;-59
2021/07/26 10:41:51;;;;;;;;;;;;;;;26.51;50.85;100977.59;1767129;79;23286;-59
2021/07/26 10:44:20;;;;;;;;;;;;;;;26.52;50.84;100973.66;1765355;79;20166;-60
2021/07/26 10:47:07;;;;;;;;;;;;;;;26.53;50.83;100974.67;1766259;79;20396;-59
2021/07/26 10:49:42;;;;;;;;;;;;;;;26.54;50.79;100973.52;1764356;79;20578;-59
2021/07/26 10:52:23;;;;;;;;;;;;;;;26.55;50.76;100970.14;1765252;79;20203;-60
2021/07/26 10:54:49;;;;;;;;;;;;;;;26.57;50.74;100971.98;1766068;79;21166;-60
2021/07/26 10:57:15;;;;;;;;;;;;;;;26.58;50.71;100970.82;1768216;79;20166;-60
2021/07/26 11:00:08;;;;;;;;;;;;;;;26.59;50.70;100970.48;1739891;79;20235;-60
2021/07/26 11:02:35;;;;;;;;;;;;;;;26.60;50.68;100969.90;1760386;80;20586;-58
2021/07/26 11:05:27;;;;;;;;;;;;;;;26.61;50.66;100970.11;1761806;80;20202;-59
2021/07/26 11:08:14;;;;;;;;;;;;;;;26.62;50.66;100964.17;1762131;80;21121;-60
2021/07/26 11:10:57;;;;;;;;;;;;;;;26.63;50.61;100965.81;1763637;81;20366;-61
2021/07/26 11:13:23;;;;;;;;;;;;;;;26.65;50.57;100972.44;1761034;80;20196;-60
2021/07/26 11:15:54;;;;;;;;;;;;;;;26.65;50.54;100966.86;1758137;80;20164;-60
2021/07/26 11:18:32;;;;;;;;;;;;;;;26.67;50.51;100961.72;1762896;80;20185;-61
2021/07/26 11:21:03;;;;;;;;;;;;;;;26.67;50.49;100959.74;1761095;80;21961;-60
2021/07/26 11:23:37;;;;;;;;;;;;;;;26.69;50.48;100958.00;1759688;80;20291;-61
2021/07/26 11:26:03;;;;;;;;;;;;;;;26.70;50.48;100959.61;1761887;80;20128;-61
2021/07/26 11:28:36;;;;;;;;;;;;;;;26.71;50.47;100963.45;1760540;81;21838;-60
2021/07/26 11:31:03;;;;;;;;;;;;;;;26.71;50.47;100962.05;1760920;80;20187;-61
2021/07/26 11:33:32;;;;;;;;;;;;;;;26.73;50.45;100961.09;1761943;80;21103;-61
2021/07/26 11:36:03;;;;;;;;;;;;;;;26.74;50.45;100963.31;1753948;80;20165;-60
2021/07/26 11:38:28;;;;;;;;;;;;;;;26.75;50.42;100950.98;1758149;80;20100;-61
2021/07/26 11:40:54;;;;;;;;;;;;;;;26.77;50.37;100950.05;1757278;80;20248;-61
2021/07/26 11:43:34;;;;;;;;;;;;;;;26.78;50.32;100952.47;1757045;80;20206;-60
2021/07/26 11:46:00;;;;;;;;;;;;;;;26.80;50.30;100954.92;1761364;80;21971;-59
2021/07/26 11:48:27;;;;;;;;;;;;;;;26.80;50.27;100955.73;1762334;80;20206;-61
2021/07/26 11:50:53;;;;;;;;;;;;;;;26.81;50.24;100947.59;1761424;81;20128;-60
2021/07/26 11:53:27;;;;;;;;;;;;;;;26.83;50.21;100949.42;1767608;79;20430;-61
2021/07/26 11:55:53;;;;;;;;;;;;;;;26.85;50.19;100951.91;1788309;78;20132;-60
2021/07/26 11:58:29;;;;;;;;;;;;;;;26.87;50.16;100952.34;1768546;79;21068;-61
2021/07/26 12:00:55;;;;;;;;;;;;;;;26.88;50.13;100944.20;1751637;80;21613;-61
2021/07/26 12:03:23;;;;;;;;;;;;;;;26.91;50.11;100948.25;1773995;79;20190;-61
2021/07/26 12:06:04;;;;;;;;;;;;;;;26.92;50.09;100945.69;1803861;78;20078;-61
2021/07/26 12:08:30;;;;;;;;;;;;;;;26.94;50.08;100946.16;1772863;78;20485;-61
2021/07/26 12:10:56;;;;;;;;;;;;;;;26.94;50.06;100937.20;1798187;78;22021;-60
2021/07/26 12:13:22;;;;;;;;;;;;;;;26.96;50.05;100931.23;1767924;79;20194;-61
2021/07/26 12:16:09;;;;;;;;;;;;;;;26.97;50.02;100933.69;1795567;78;20176;-61
2021/07/26 12:18:35;;;;;;;;;;;;;;;26.99;50.04;100937.53;1799483;78;20167;-60
2021/07/26 12:21:02;;;;;;;;;;;;;;;26.99;49.98;100932.73;1797923;78;20195;-59
2021/07/26 12:23:29;;;;;;;;;;;;;;;27.01;49.98;100932.38;1797052;78;21066;-60
2021/07/26 12:25:57;;;;;;;;;;;;;;;27.03;49.97;100937.04;1797362;78;20160;-60
2021/07/26 12:28:41;;;;;;;;;;;;;;;27.03;49.95;100930.84;1797080;78;20208;-59
2021/07/26 12:31:28;;;;;;;;;;;;;;;27.05;49.93;100933.28;1798368;78;20421;-61
2021/07/26 12:34:18;;;;;;;;;;;;;;;27.06;49.90;100924.56;1735212;81;20128;-61
2021/07/26 12:36:44;;;;;;;;;;;;;;;27.07;49.88;100919.79;1726921;82;21116;-57
2021/07/26 12:39:10;;;;;;;;;;;;;;;27.09;49.86;100923.02;1725838;82;20737;-60
2021/07/26 12:41:36;;;;;;;;;;;;;;;27.09;49.86;100914.06;1714187;82;20127;-60
2021/07/26 12:44:14;;;;;;;;;;;;;;;27.12;49.86;100917.52;1714237;82;20148;-60